sensor_id;sensor_type;location;lat;lon;timestamp;pressure;altitude;pressure_sealevel;temperature;humidity
59110;BME280;44895;47.438;18.978;2023-09-07T00:01:54;100754.41;;;13.70;100.00
59110;BME280;44895;47.438;18.978;2023-09-07T00:04:58;100752.53;;;13.85;100.00
59110;BME280;44895;47.438;18.978;2023-09-07T00:08:03;100759.63;;;13.86;100.00
59110;BME280;44895;47.438;18.978;2023-09-07T00:11:08;100753.06;;;13.87;100.00
59110;BME280;44895;47.438;18.978;2023-09-07T00:14:13;100755.56;;;13.83;100.00
59110;BME280;44895;47.438;18.978;2023-09-07T00:17:17;100751.28;;;13.77;100.00
59110;BME280;44895;47.438;18.978;2023-09-07T00:20:22;100753.44;;;13.61;100.00
59110;BME280;44895;47.438;18.978;2023-09-07T00:23:28;100759.88;;;13.51;100.00
59110;BME280;44895;47.438;18.978;2023-09-07T00:26:32;100756.03;;;13.52;100.00
59110;BME280;44895;47.438;18.978;2023-09-07T00:29:37;100755.09;;;13.62;100.00
59110;BME280;44895;47.438;18.978;2023-09-07T00:32:41;100753.78;;;13.41;100.00
59110;BME280;44895;47.438;18.978;2023-09-07T00:35:45;100755.41;;;13.42;100.00
59110;BME280;44895;47.438;18.978;2023-09-07T00:38:50;100756.03;;;13.52;100.00
59110;BME280;44895;47.438;18.978;2023-09-07T00:41:53;100755.88;;;13.63;100.00
59110;BME280;44895;47.438;18.978;2023-09-07T00:44:59;100751.06;;;13.74;100.00
59110;BME280;44895;47.438;18.978;2023-09-07T00:48:04;100751.38;;;13.72;100.00
59110;BME280;44895;47.438;18.978;2023-09-07T00:51:08;100742.28;;;13.77;100.00
59110;BME280;44895;47.438;18.978;2023-09-07T00:54:13;100748.53;;;13.63;100.00
59110;BME280;44895;47.438;18.978;2023-09-07T00:57:17;100759.22;;;13.60;100.00
59110;BME280;44895;47.438;18.978;2023-09-07T01:00:21;100762.75;;;13.60;100.00
59110;BME280;44895;47.438;18.978;2023-09-07T01:03:25;100753.19;;;13.44;100.00
59110;BME280;44895;47.438;18.978;2023-09-07T01:06:54;100754.31;;;13.43;100.00
59110;BME280;44895;47.438;18.978;2023-09-07T01:10:02;100754.88;;;13.40;100.00
59110;BME280;44895;47.438;18.978;2023-09-07T01:13:07;100756.34;;;13.32;100.00
59110;BME280;44895;47.438;18.978;2023-09-07T01:16:12;100750.66;;;13.09;100.00
59110;BME280;44895;47.438;18.978;2023-09-07T01:19:17;100757.13;;;13.13;100.00
59110;BME280;44895;47.438;18.978;2023-09-07T01:22:21;100755.88;;;13.05;100.00
59110;BME280;44895;47.438;18.978;2023-09-07T01:25:29;100757.91;;;13.19;100.00
59110;BME280;44895;47.438;18.978;2023-09-07T01:28:37;100753.00;;;13.16;100.00
59110;BME280;44895;47.438;18.978;2023-09-07T01:31:42;100753.69;;;13.08;100.00
59110;BME280;44895;47.438;18.978;2023-09-07T01:34:46;100757.59;;;13.01;100.00
59110;BME280;44895;47.438;18.978;2023-09-07T01:37:50;100757.28;;;13.03;100.00
59110;BME280;44895;47.438;18.978;2023-09-07T01:40:54;100761.78;;;13.13;100.00
59110;BME280;44895;47.438;18.978;2023-09-07T01:43:57;100761.56;;;12.90;100.00
59110;BME280;44895;47.438;18.978;2023-09-07T01:47:01;100760.09;;;12.98;100.00
59110;BME280;44895;47.438;18.978;2023-09-07T01:50:06;100767.47;;;12.97;100.00
59110;BME280;44895;47.438;18.978;2023-09-07T01:53:10;100763.91;;;12.97;100.00
59110;BME280;44895;47.438;18.978;2023-09-07T01:56:17;100755.41;;;12.79;100.00
59110;BME280;44895;47.438;18.978;2023-09-07T01:59:21;100753.00;;;12.97;100.00
59110;BME280;44895;47.438;18.978;2023-09-07T02:02:25;100750.66;;;12.90;100.00
59110;BME280;44895;47.438;18.978;2023-09-07T02:05:29;100752.44;;;13.19;100.00
59110;BME280;44895;47.438;18.978;2023-09-07T02:08:33;100760.63;;;13.19;100.00
59110;BME280;44895;47.438;18.978;2023-09-07T02:11:38;100762.44;;;13.24;100.00
59110;BME280;44895;47.438;18.978;2023-09-07T02:14:43;100764.22;;;12.95;100.00
59110;BME280;44895;47.438;18.978;2023-09-07T02:17:47;100751.19;;;12.92;100.00
59110;BME280;44895;47.438;18.978;2023-09-07T02:20:53;100764.22;;;12.95;100.00
59110;BME280;44895;47.438;18.978;2023-09-07T02:23:57;100759.41;;;12.87;100.00
59110;BME280;44895;47.438;18.978;2023-09-07T02:27:01;100763.75;;;12.88;100.00
59110;BME280;44895;47.438;18.978;2023-09-07T02:30:05;100761.97;;;12.78;100.00
59110;BME280;44895;47.438;18.978;2023-09-07T02:33:09;100755.78;;;12.72;100.00
59110;BME280;44895;47.438;18.978;2023-09-07T02:36:13;100773.56;;;12.89;100.00
59110;BME280;44895;47.438;18.978;2023-09-07T02:39:17;100774.72;;;12.83;100.00
59110;BME280;44895;47.438;18.978;2023-09-07T02:42:22;100777.16;;;12.84;100.00
59110;BME280;44895;47.438;18.978;2023-09-07T02:45:28;100769.78;;;12.85;100.00
59110;BME280;44895;47.438;18.978;2023-09-07T02:48:32;100777.09;;;12.65;100.00
59110;BME280;44895;47.438;18.978;2023-09-07T02:51:36;100764.31;;;12.66;100.00
59110;BME280;44895;47.438;18.978;2023-09-07T02:54:41;100774.28;;;12.76;100.00
59110;BME280;44895;47.438;18.978;2023-09-07T02:57:46;100775.88;;;12.77;100.00
59110;BME280;44895;47.438;18.978;2023-09-07T03:00:50;100777.09;;;12.65;100.00
59110;BME280;44895;47.438;18.978;2023-09-07T03:03:57;100776.25;;;12.70;100.00
59110;BME280;44895;47.438;18.978;2023-09-07T03:07:01;100774.13;;;12.67;100.00
59110;BME280;44895;47.438;18.978;2023-09-07T03:10:06;100766.97;;;12.71;100.00
59110;BME280;44895;47.438;18.978;2023-09-07T03:13:10;100777.88;;;12.71;100.00
59110;BME280;44895;47.438;18.978;2023-09-07T03:16:15;100780.06;;;12.69;100.00
59110;BME280;44895;47.438;18.978;2023-09-07T03:19:19;100779.19;;;12.73;100.00
59110;BME280;44895;47.438;18.978;2023-09-07T03:22:23;100784.84;;;12.58;100.00
59110;BME280;44895;47.438;18.978;2023-09-07T03:25:27;100776.00;;;12.66;100.00
59110;BME280;44895;47.438;18.978;2023-09-07T03:28:31;100761.34;;;12.38;100.00
59110;BME280;44895;47.438;18.978;2023-09-07T03:31:35;100774.13;;;12.43;100.00
59110;BME280;44895;47.438;18.978;2023-09-07T03:34:39;100771.34;;;12.48;100.00
59110;BME280;44895;47.438;18.978;2023-09-07T03:37:44;100782.16;;;12.53;100.00
59110;BME280;44895;47.438;18.978;2023-09-07T03:40:48;100779.09;;;12.35;100.00
59110;BME280;44895;47.438;18.978;2023-09-07T03:43:52;100774.16;;;12.37;100.00
59110;BME280;44895;47.438;18.978;2023-09-07T03:46:57;100783.19;;;12.33;100.00
59110;BME280;44895;47.438;18.978;2023-09-07T03:50:01;100769.88;;;12.31;100.00
59110;BME280;44895;47.438;18.978;2023-09-07T03:53:07;100783.50;;;12.31;100.00
59110;BME280;44895;47.438;18.978;2023-09-07T03:56:12;100777.75;;;12.33;100.00
59110;BME280;44895;47.438;18.978;2023-09-07T03:59:16;100780.44;;;12.09;100.00
59110;BME280;44895;47.438;18.978;2023-09-07T04:02:21;100783.91;;;12.14;100.00
59110;BME280;44895;47.438;18.978;2023-09-07T04:05:25;100783.19;;;12.33;100.00
59110;BME280;44895;47.438;18.978;2023-09-07T04:08:49;100785.50;;;12.20;100.00
59110;BME280;44895;47.438;18.978;2023-09-07T04:11:53;100783.50;;;12.26;100.00
59110;BME280;44895;47.438;18.978;2023-09-07T04:14:58;100793.41;;;12.17;100.00
59110;BME280;44895;47.438;18.978;2023-09-07T04:18:03;100795.91;;;12.13;100.00
59110;BME280;44895;47.438;18.978;2023-09-07T04:21:08;100786.94;;;12.13;100.00
59110;BME280;44895;47.438;18.978;2023-09-07T04:24:13;100786.28;;;12.21;100.00
59110;BME280;44895;47.438;18.978;2023-09-07T04:27:17;100789.09;;;12.40;100.00
59110;BME280;44895;47.438;18.978;2023-09-07T04:30:21;100789.06;;;12.45;100.00
59110;BME280;44895;47.438;18.978;2023-09-07T04:33:26;100792.72;;;12.60;100.00
59110;BME280;44895;47.438;18.978;2023-09-07T04:36:30;100785.81;;;12.67;100.00
59110;BME280;44895;47.438;18.978;2023-09-07T04:39:35;100796.59;;;12.53;100.00
59110;BME280;44895;47.438;18.978;2023-09-07T04:42:39;100803.38;;;12.56;100.00
59110;BME280;44895;47.438;18.978;2023-09-07T04:45:46;100790.84;;;12.55;100.00
59110;BME280;44895;47.438;18.978;2023-09-07T04:48:51;100791.84;;;12.64;100.00
59110;BME280;44895;47.438;18.978;2023-09-07T04:51:57;100791.50;;;12.71;100.00
59110;BME280;44895;47.438;18.978;2023-09-07T04:55:02;100793.06;;;12.77;100.00
59110;BME280;44895;47.438;18.978;2023-09-07T04:58:07;100796.06;;;13.00;100.00
59110;BME280;44895;47.438;18.978;2023-09-07T05:01:12;100790.16;;;13.12;100.00
59110;BME280;44895;47.438;18.978;2023-09-07T05:04:17;100799.75;;;13.09;100.00
59110;BME280;44895;47.438;18.978;2023-09-07T05:07:21;100798.28;;;13.17;100.00
59110;BME280;44895;47.438;18.978;2023-09-07T05:10:25;100797.25;;;13.32;100.00
59110;BME280;44895;47.438;18.978;2023-09-07T05:13:30;100796.47;;;13.50;100.00
59110;BME280;44895;47.438;18.978;2023-09-07T05:16:35;100798.75;;;13.62;100.00
59110;BME280;44895;47.438;18.978;2023-09-07T05:19:39;100803.56;;;13.84;100.00
59110;BME280;44895;47.438;18.978;2023-09-07T05:22:43;100803.44;;;13.95;100.00
59110;BME280;44895;47.438;18.978;2023-09-07T05:25:49;100817.63;;;14.11;100.00
59110;BME280;44895;47.438;18.978;2023-09-07T05:28:55;100806.41;;;14.26;100.00
59110;BME280;44895;47.438;18.978;2023-09-07T05:31:59;100814.56;;;14.45;100.00
59110;BME280;44895;47.438;18.978;2023-09-07T05:35:03;100811.84;;;14.59;100.00
59110;BME280;44895;47.438;18.978;2023-09-07T05:38:08;100815.81;;;14.81;100.00
59110;BME280;44895;47.438;18.978;2023-09-07T05:41:13;100808.00;;;14.88;100.00
59110;BME280;44895;47.438;18.978;2023-09-07T05:44:17;100812.75;;;15.10;100.00
59110;BME280;44895;47.438;18.978;2023-09-07T05:47:22;100820.38;;;15.36;100.00
59110;BME280;44895;47.438;18.978;2023-09-07T05:50:26;100814.75;;;15.55;100.00
59110;BME280;44895;47.438;18.978;2023-09-07T05:53:30;100811.50;;;15.67;100.00
59110;BME280;44895;47.438;18.978;2023-09-07T05:56:34;100810.59;;;15.80;100.00
59110;BME280;44895;47.438;18.978;2023-09-07T05:59:38;100809.00;;;16.02;100.00
59110;BME280;44895;47.438;18.978;2023-09-07T06:02:45;100816.22;;;16.21;100.00
59110;BME280;44895;47.438;18.978;2023-09-07T06:05:50;100822.94;;;16.46;100.00
59110;BME280;44895;47.438;18.978;2023-09-07T06:08:55;100817.09;;;16.79;100.00
59110;BME280;44895;47.438;18.978;2023-09-07T06:11:59;100824.31;;;17.06;100.00
59110;BME280;44895;47.438;18.978;2023-09-07T06:15:04;100822.44;;;17.42;100.00
59110;BME280;44895;47.438;18.978;2023-09-07T06:18:08;100827.59;;;17.87;100.00
59110;BME280;44895;47.438;18.978;2023-09-07T06:21:13;100825.59;;;18.32;100.00
59110;BME280;44895;47.438;18.978;2023-09-07T06:24:18;100822.22;;;19.03;100.00
59110;BME280;44895;47.438;18.978;2023-09-07T06:27:21;100824.66;;;19.90;100.00
59110;BME280;44895;47.438;18.978;2023-09-07T06:30:27;100816.78;;;20.83;100.00
59110;BME280;44895;47.438;18.978;2023-09-07T06:33:31;100812.06;;;27.26;100.00
59110;BME280;44895;47.438;18.978;2023-09-07T06:36:35;100811.75;;;34.47;49.00
59110;BME280;44895;47.438;18.978;2023-09-07T06:39:40;100812.09;;;37.65;39.99
59110;BME280;44895;47.438;18.978;2023-09-07T06:42:47;100816.84;;;38.09;35.51
59110;BME280;44895;47.438;18.978;2023-09-07T06:45:54;100807.56;;;40.24;32.91
59110;BME280;44895;47.438;18.978;2023-09-07T06:48:58;100811.84;;;42.08;31.06
59110;BME280;44895;47.438;18.978;2023-09-07T06:52:02;100816.78;;;42.49;29.59
59110;BME280;44895;47.438;18.978;2023-09-07T06:55:06;100815.88;;;41.81;29.49
59110;BME280;44895;47.438;18.978;2023-09-07T06:58:11;100818.22;;;40.05;29.57
59110;BME280;44895;47.438;18.978;2023-09-07T07:01:15;100833.75;;;37.81;31.77
59110;BME280;44895;47.438;18.978;2023-09-07T07:04:19;100832.25;;;35.66;34.84
59110;BME280;44895;47.438;18.978;2023-09-07T07:07:23;100838.50;;;31.21;40.49
59110;BME280;44895;47.438;18.978;2023-09-07T07:10:28;100829.44;;;30.12;43.82
59110;BME280;44895;47.438;18.978;2023-09-07T07:13:32;100838.97;;;27.81;50.48
59110;BME280;44895;47.438;18.978;2023-09-07T07:16:36;100834.97;;;27.72;53.25
59110;BME280;44895;47.438;18.978;2023-09-07T07:19:40;100830.38;;;27.27;57.23
59110;BME280;44895;47.438;18.978;2023-09-07T07:22:45;100839.53;;;26.68;60.28
59110;BME280;44895;47.438;18.978;2023-09-07T07:25:52;100836.53;;;26.92;58.80
59110;BME280;44895;47.438;18.978;2023-09-07T07:28:56;100831.72;;;27.62;58.56
59110;BME280;44895;47.438;18.978;2023-09-07T07:32:00;100835.91;;;26.16;58.71
59110;BME280;44895;47.438;18.978;2023-09-07T07:35:05;100839.81;;;28.00;55.85
59110;BME280;44895;47.438;18.978;2023-09-07T07:38:11;100825.25;;;26.74;56.54
59110;BME280;44895;47.438;18.978;2023-09-07T07:41:18;100832.84;;;24.99;69.22
59110;BME280;44895;47.438;18.978;2023-09-07T07:44:22;100842.09;;;25.11;75.40
59110;BME280;44895;47.438;18.978;2023-09-07T07:47:26;100841.88;;;25.23;76.82
59110;BME280;44895;47.438;18.978;2023-09-07T07:50:31;100840.34;;;24.49;76.61
59110;BME280;44895;47.438;18.978;2023-09-07T07:53:35;100835.41;;;27.04;70.13
59110;BME280;44895;47.438;18.978;2023-09-07T07:56:39;100839.88;;;27.19;59.54
59110;BME280;44895;47.438;18.978;2023-09-07T07:59:44;100832.16;;;25.67;66.31
59110;BME280;44895;47.438;18.978;2023-09-07T08:02:49;100839.47;;;25.82;73.00
59110;BME280;44895;47.438;18.978;2023-09-07T08:05:54;100845.47;;;25.23;77.57
59110;BME280;44895;47.438;18.978;2023-09-07T08:08:58;100839.44;;;25.18;79.99
59110;BME280;44895;47.438;18.978;2023-09-07T08:12:02;100823.22;;;26.22;74.93
59110;BME280;44895;47.438;18.978;2023-09-07T08:15:08;100836.25;;;25.80;71.82
59110;BME280;44895;47.438;18.978;2023-09-07T08:18:12;100841.81;;;25.80;74.85
59110;BME280;44895;47.438;18.978;2023-09-07T08:21:16;100827.97;;;27.29;60.42
59110;BME280;44895;47.438;18.978;2023-09-07T08:24:21;100829.84;;;27.04;60.09
59110;BME280;44895;47.438;18.978;2023-09-07T08:27:25;100828.56;;;26.90;61.15
59110;BME280;44895;47.438;18.978;2023-09-07T08:30:33;100816.81;;;26.18;66.69
59110;BME280;44895;47.438;18.978;2023-09-07T08:33:37;100829.63;;;25.54;73.65
59110;BME280;44895;47.438;18.978;2023-09-07T08:36:44;100831.16;;;25.21;78.88
59110;BME280;44895;47.438;18.978;2023-09-07T08:39:48;100819.56;;;26.59;70.57
59110;BME280;44895;47.438;18.978;2023-09-07T08:42:52;100818.00;;;25.83;74.83
59110;BME280;44895;47.438;18.978;2023-09-07T08:46:20;100819.56;;;25.77;71.94
59110;BME280;44895;47.438;18.978;2023-09-07T08:49:27;100810.72;;;26.98;67.39
59110;BME280;44895;47.438;18.978;2023-09-07T08:52:33;100810.91;;;26.23;67.28
59110;BME280;44895;47.438;18.978;2023-09-07T08:55:37;100798.16;;;25.47;70.65
59110;BME280;44895;47.438;18.978;2023-09-07T08:58:41;100805.47;;;25.62;69.38
59110;BME280;44895;47.438;18.978;2023-09-07T09:01:46;100811.84;;;25.63;71.67
59110;BME280;44895;47.438;18.978;2023-09-07T09:04:51;100810.09;;;25.20;73.21
59110;BME280;44895;47.438;18.978;2023-09-07T09:08:03;100814.69;;;25.36;73.45
59110;BME280;44895;47.438;18.978;2023-09-07T09:11:08;100795.56;;;25.34;71.53
59110;BME280;44895;47.438;18.978;2023-09-07T09:14:16;100808.41;;;25.12;72.76
59110;BME280;44895;47.438;18.978;2023-09-07T09:17:24;100808.25;;;25.01;72.71
59110;BME280;44895;47.438;18.978;2023-09-07T09:20:28;100808.63;;;25.00;74.78
59110;BME280;44895;47.438;18.978;2023-09-07T09:23:33;100798.03;;;25.09;70.52
59110;BME280;44895;47.438;18.978;2023-09-07T09:26:38;100797.34;;;25.16;70.65
59110;BME280;44895;47.438;18.978;2023-09-07T09:29:43;100800.28;;;25.00;68.70
59110;BME280;44895;47.438;18.978;2023-09-07T09:32:48;100804.44;;;24.86;66.46
59110;BME280;44895;47.438;18.978;2023-09-07T09:35:53;100792.28;;;25.25;69.98
59110;BME280;44895;47.438;18.978;2023-09-07T09:38:57;100794.97;;;25.18;66.57
59110;BME280;44895;47.438;18.978;2023-09-07T09:42:02;100793.63;;;25.35;63.18
59110;BME280;44895;47.438;18.978;2023-09-07T09:45:07;100793.56;;;25.31;61.71
59110;BME280;44895;47.438;18.978;2023-09-07T09:48:13;100798.53;;;25.45;61.62
59110;BME280;44895;47.438;18.978;2023-09-07T09:51:18;100787.13;;;25.54;59.36
59110;BME280;44895;47.438;18.978;2023-09-07T09:54:23;100791.53;;;25.59;59.94
59110;BME280;44895;47.438;18.978;2023-09-07T09:57:27;100783.06;;;25.48;58.38
59110;BME280;44895;47.438;18.978;2023-09-07T10:00:34;100790.41;;;25.33;57.70
59110;BME280;44895;47.438;18.978;2023-09-07T10:03:45;100771.56;;;25.49;60.33
59110;BME280;44895;47.438;18.978;2023-09-07T10:06:54;100787.63;;;25.63;58.79
59110;BME280;44895;47.438;18.978;2023-09-07T10:09:58;100784.78;;;25.60;58.98
59110;BME280;44895;47.438;18.978;2023-09-07T10:13:02;100787.47;;;25.49;58.53
59110;BME280;44895;47.438;18.978;2023-09-07T10:16:07;100780.09;;;25.67;58.03
59110;BME280;44895;47.438;18.978;2023-09-07T10:19:17;100771.88;;;25.78;59.26
59110;BME280;44895;47.438;18.978;2023-09-07T10:22:21;100771.69;;;25.60;55.12
59110;BME280;44895;47.438;18.978;2023-09-07T10:25:30;100778.53;;;25.70;57.39
59110;BME280;44895;47.438;18.978;2023-09-07T10:28:35;100770.66;;;25.76;61.75
59110;BME280;44895;47.438;18.978;2023-09-07T10:31:39;100772.75;;;25.86;59.16
59110;BME280;44895;47.438;18.978;2023-09-07T10:34:46;100765.94;;;25.80;56.12
59110;BME280;44895;47.438;18.978;2023-09-07T10:37:50;100753.50;;;26.08;56.85
59110;BME280;44895;47.438;18.978;2023-09-07T10:41:00;100765.75;;;26.03;56.89
59110;BME280;44895;47.438;18.978;2023-09-07T10:44:04;100766.06;;;25.94;54.53
59110;BME280;44895;47.438;18.978;2023-09-07T10:47:10;100757.47;;;26.07;55.10
59110;BME280;44895;47.438;18.978;2023-09-07T10:50:14;100751.53;;;26.08;54.59
59110;BME280;44895;47.438;18.978;2023-09-07T10:53:30;100751.63;;;26.19;54.78
59110;BME280;44895;47.438;18.978;2023-09-07T10:56:34;100755.19;;;26.16;52.25
59110;BME280;44895;47.438;18.978;2023-09-07T10:59:38;100742.16;;;26.27;54.53
59110;BME280;44895;47.438;18.978;2023-09-07T11:02:47;100744.66;;;26.43;53.95
59110;BME280;44895;47.438;18.978;2023-09-07T11:05:57;100737.13;;;26.44;51.79
59110;BME280;44895;47.438;18.978;2023-09-07T11:09:03;100739.13;;;26.50;51.08
59110;BME280;44895;47.438;18.978;2023-09-07T11:12:12;100734.34;;;26.51;52.43
59110;BME280;44895;47.438;18.978;2023-09-07T11:15:18;100727.56;;;26.45;53.87
59110;BME280;44895;47.438;18.978;2023-09-07T11:18:25;100727.69;;;26.63;53.29
59110;BME280;44895;47.438;18.978;2023-09-07T11:21:29;100720.94;;;26.67;54.42
59110;BME280;44895;47.438;18.978;2023-09-07T11:24:34;100719.13;;;26.34;50.25
59110;BME280;44895;47.438;18.978;2023-09-07T11:27:39;100720.84;;;26.53;49.31
59110;BME280;44895;47.438;18.978;2023-09-07T11:30:50;100720.47;;;26.54;51.68
59110;BME280;44895;47.438;18.978;2023-09-07T11:33:54;100716.91;;;26.61;51.15
59110;BME280;44895;47.438;18.978;2023-09-07T11:37:02;100716.09;;;26.57;48.85
59110;BME280;44895;47.438;18.978;2023-09-07T11:40:06;100721.19;;;26.44;47.78
59110;BME280;44895;47.438;18.978;2023-09-07T11:43:16;100715.31;;;26.57;48.74
59110;BME280;44895;47.438;18.978;2023-09-07T11:46:22;100715.78;;;26.69;48.36
59110;BME280;44895;47.438;18.978;2023-09-07T11:49:26;100710.19;;;26.66;49.04
59110;BME280;44895;47.438;18.978;2023-09-07T11:52:30;100703.13;;;26.79;47.67
59110;BME280;44895;47.438;18.978;2023-09-07T11:55:35;100709.06;;;26.78;46.53
59110;BME280;44895;47.438;18.978;2023-09-07T11:58:39;100702.31;;;26.79;46.76
59110;BME280;44895;47.438;18.978;2023-09-07T12:01:43;100708.97;;;26.60;45.83
59110;BME280;44895;47.438;18.978;2023-09-07T12:04:48;100704.66;;;26.69;47.39
59110;BME280;44895;47.438;18.978;2023-09-07T12:07:52;100697.19;;;26.81;47.75
59110;BME280;44895;47.438;18.978;2023-09-07T12:10:57;100703.84;;;26.73;46.58
59110;BME280;44895;47.438;18.978;2023-09-07T12:14:01;100701.50;;;26.75;48.41
59110;BME280;44895;47.438;18.978;2023-09-07T12:17:04;100697.97;;;26.85;47.92
59110;BME280;44895;47.438;18.978;2023-09-07T12:20:09;100692.38;;;26.78;47.46
59110;BME280;44895;47.438;18.978;2023-09-07T12:23:14;100689.19;;;26.76;46.05
59110;BME280;44895;47.438;18.978;2023-09-07T12:26:18;100690.81;;;26.88;48.48
59110;BME280;44895;47.438;18.978;2023-09-07T12:29:24;100680.50;;;26.88;47.09
59110;BME280;44895;47.438;18.978;2023-09-07T12:32:28;100686.84;;;26.85;46.34
59110;BME280;44895;47.438;18.978;2023-09-07T12:35:32;100684.13;;;26.99;48.47
59110;BME280;44895;47.438;18.978;2023-09-07T12:38:36;100680.94;;;26.97;48.63
59110;BME280;44895;47.438;18.978;2023-09-07T12:41:41;100685.69;;;26.97;47.05
59110;BME280;44895;47.438;18.978;2023-09-07T12:44:45;100686.09;;;26.95;47.92
59110;BME280;44895;47.438;18.978;2023-09-07T12:47:49;100674.44;;;26.75;46.00
59110;BME280;44895;47.438;18.978;2023-09-07T12:50:54;100669.72;;;26.86;46.24
59110;BME280;44895;47.438;18.978;2023-09-07T12:53:58;100668.16;;;26.85;46.21
59110;BME280;44895;47.438;18.978;2023-09-07T12:57:03;100667.72;;;26.80;47.48
59110;BME280;44895;47.438;18.978;2023-09-07T13:00:08;100661.06;;;26.36;49.83
59110;BME280;44895;47.438;18.978;2023-09-07T13:03:12;100659.19;;;26.51;48.95
59110;BME280;44895;47.438;18.978;2023-09-07T13:06:16;100664.22;;;26.27;50.39
59110;BME280;44895;47.438;18.978;2023-09-07T13:09:21;100653.97;;;26.46;49.80
59110;BME280;44895;47.438;18.978;2023-09-07T13:12:26;100649.59;;;26.41;49.54
59110;BME280;44895;47.438;18.978;2023-09-07T13:15:30;100653.59;;;26.47;47.32
59110;BME280;44895;47.438;18.978;2023-09-07T13:18:34;100662.31;;;26.42;48.05
59110;BME280;44895;47.438;18.978;2023-09-07T13:21:38;100654.34;;;26.41;44.71
59110;BME280;44895;47.438;18.978;2023-09-07T13:24:41;100653.09;;;26.31;45.04
59110;BME280;44895;47.438;18.978;2023-09-07T13:27:46;100646.03;;;26.44;45.95
59110;BME280;44895;47.438;18.978;2023-09-07T13:30:50;100652.81;;;26.47;46.55
59110;BME280;44895;47.438;18.978;2023-09-07T13:33:54;100650.78;;;26.40;45.76
59110;BME280;44895;47.438;18.978;2023-09-07T13:36:58;100639.19;;;26.34;45.04
59110;BME280;44895;47.438;18.978;2023-09-07T13:40:02;100650.25;;;26.20;46.70
59110;BME280;44895;47.438;18.978;2023-09-07T13:43:06;100649.97;;;26.40;44.98
59110;BME280;44895;47.438;18.978;2023-09-07T13:46:10;100631.19;;;26.26;45.40
59110;BME280;44895;47.438;18.978;2023-09-07T13:49:14;100636.38;;;26.27;44.92
59110;BME280;44895;47.438;18.978;2023-09-07T13:52:18;100633.16;;;26.21;44.93
59110;BME280;44895;47.438;18.978;2023-09-07T13:55:24;100632.34;;;26.17;43.01
59110;BME280;44895;47.438;18.978;2023-09-07T13:58:29;100637.19;;;26.28;44.16
59110;BME280;44895;47.438;18.978;2023-09-07T14:01:33;100636.25;;;26.09;45.15
59110;BME280;44895;47.438;18.978;2023-09-07T14:04:38;100639.88;;;26.17;43.93
59110;BME280;44895;47.438;18.978;2023-09-07T14:07:42;100631.53;;;26.17;43.48
59110;BME280;44895;47.438;18.978;2023-09-07T14:10:46;100628.00;;;26.24;44.94
59110;BME280;44895;47.438;18.978;2023-09-07T14:13:51;100637.47;;;26.12;45.39
59110;BME280;44895;47.438;18.978;2023-09-07T14:16:55;100633.59;;;26.31;45.15
59110;BME280;44895;47.438;18.978;2023-09-07T14:20:01;100626.00;;;26.24;44.61
59110;BME280;44895;47.438;18.978;2023-09-07T14:23:05;100621.22;;;26.17;44.23
59110;BME280;44895;47.438;18.978;2023-09-07T14:26:10;100624.72;;;26.11;45.39
59110;BME280;44895;47.438;18.978;2023-09-07T14:29:14;100622.00;;;26.18;45.04
59110;BME280;44895;47.438;18.978;2023-09-07T14:32:18;100616.00;;;26.09;45.45
59110;BME280;44895;47.438;18.978;2023-09-07T14:35:22;100616.44;;;26.18;46.33
59110;BME280;44895;47.438;18.978;2023-09-07T14:38:26;100610.81;;;26.07;46.09
59110;BME280;44895;47.438;18.978;2023-09-07T14:41:31;100600.88;;;26.06;43.86
59110;BME280;44895;47.438;18.978;2023-09-07T14:44:35;100611.19;;;26.05;44.43
59110;BME280;44895;47.438;18.978;2023-09-07T14:47:38;100612.06;;;26.13;44.85
59110;BME280;44895;47.438;18.978;2023-09-07T14:50:43;100612.44;;;26.15;45.63
59110;BME280;44895;47.438;18.978;2023-09-07T14:53:46;100603.91;;;25.90;46.95
59110;BME280;44895;47.438;18.978;2023-09-07T14:56:50;100597.13;;;25.87;47.33
59110;BME280;44895;47.438;18.978;2023-09-07T14:59:55;100604.22;;;25.81;46.77
59110;BME280;44895;47.438;18.978;2023-09-07T15:02:59;100604.94;;;25.71;48.29
59110;BME280;44895;47.438;18.978;2023-09-07T15:06:05;100599.31;;;25.64;48.41
59110;BME280;44895;47.438;18.978;2023-09-07T15:09:09;100606.28;;;25.92;47.21
59110;BME280;44895;47.438;18.978;2023-09-07T15:12:13;100608.16;;;25.73;47.04
59110;BME280;44895;47.438;18.978;2023-09-07T15:15:18;100613.22;;;25.60;48.55
59110;BME280;44895;47.438;18.978;2023-09-07T15:18:22;100611.25;;;25.64;47.26
59110;BME280;44895;47.438;18.978;2023-09-07T15:21:26;100605.63;;;25.57;46.54
59110;BME280;44895;47.438;18.978;2023-09-07T15:24:30;100599.31;;;25.60;46.29
59110;BME280;44895;47.438;18.978;2023-09-07T15:27:35;100608.53;;;25.75;45.58
59110;BME280;44895;47.438;18.978;2023-09-07T15:30:39;100599.28;;;25.56;46.09
59110;BME280;44895;47.438;18.978;2023-09-07T15:33:44;100593.66;;;25.49;46.68
59110;BME280;44895;47.438;18.978;2023-09-07T15:36:48;100586.72;;;25.32;46.63
59110;BME280;44895;47.438;18.978;2023-09-07T15:39:53;100596.31;;;25.38;45.80
59110;BME280;44895;47.438;18.978;2023-09-07T15:42:58;100592.44;;;25.47;45.79
59110;BME280;44895;47.438;18.978;2023-09-07T15:46:03;100588.81;;;25.43;45.18
59110;BME280;44895;47.438;18.978;2023-09-07T15:49:07;100601.94;;;25.46;45.11